createdAt,value
2019-05-13T00:05:03.885Z,101938.16
2019-05-13T00:10:09.555Z,101936.91
2019-05-13T00:15:16.044Z,101938.56
2019-05-13T00:20:20.392Z,101939.88
2019-05-13T00:25:24.775Z,101940.62
2019-05-13T00:30:29.125Z,101950.69
2019-05-13T00:35:34.063Z,101951.05
2019-05-13T00:40:38.534Z,101953.27
2019-05-13T00:45:44.396Z,101951.85
2019-05-13T00:50:48.915Z,101949.28
2019-05-13T00:55:53.742Z,101957.59
2019-05-13T01:00:58.218Z,101963.06
2019-05-13T01:06:04.287Z,101977.01
2019-05-13T01:11:08.856Z,101977.01
2019-05-13T01:16:14.068Z,101972.52
2019-05-13T01:21:19.684Z,101981.44
2019-05-13T01:26:24.027Z,101984.37
2019-05-13T01:31:28.367Z,101987.53
2019-05-13T01:36:34.024Z,101989.05
2019-05-13T01:41:38.674Z,101989.59
2019-05-13T01:46:43.677Z,101996.02
2019-05-13T01:51:48.302Z,101994.45
2019-05-13T01:56:53.470Z,102003.36
2019-05-13T02:01:58.156Z,102008.51
2019-05-13T02:07:04.108Z,102010.42
2019-05-13T02:12:08.712Z,102010.99
2019-05-13T02:17:14.606Z,102015.97
2019-05-13T02:22:20.412Z,102019.13
2019-05-13T02:27:25.480Z,102014.84
2019-05-13T02:32:32.887Z,102025.78
2019-05-13T02:37:36.087Z,102020.20
2019-05-13T02:42:43.497Z,102023.50
2019-05-13T02:47:46.460Z,102029.42
2019-05-13T02:52:53.127Z,102031.97
2019-05-13T02:57:56.920Z,102035.48
2019-05-13T03:03:03.309Z,102027.66
2019-05-13T03:08:08.442Z,102045.34
2019-05-13T03:13:13.003Z,102043.45
2019-05-13T03:18:18.450Z,102044.48
2019-05-13T03:23:23.230Z,102045.61
2019-05-13T03:28:27.591Z,102050.28
2019-05-13T03:33:36.800Z,102050.57
2019-05-13T03:38:58.181Z,102065.62
2019-05-13T03:43:45.139Z,102070.45
2019-05-13T03:48:52.994Z,102072.65
2019-05-13T03:53:57.606Z,102074.28
2019-05-13T03:59:02.828Z,102083.05
2019-05-13T04:04:08.367Z,102092.84
2019-05-13T04:09:22.223Z,102088.53
2019-05-13T04:14:19.019Z,102094.09
2019-05-13T04:19:23.580Z,102101.03
2019-05-13T04:24:29.097Z,102099.45
2019-05-13T04:29:33.780Z,102107.12
2019-05-13T04:34:38.289Z,102110.12
2019-05-13T04:39:51.219Z,102117.94
2019-05-13T04:44:48.789Z,102120.69
2019-05-13T04:49:53.621Z,102122.03
2019-05-13T04:54:58.133Z,102119.74
2019-05-13T05:00:04.304Z,102126.34
2019-05-13T05:05:22.545Z,102128.48
2019-05-13T05:10:38.311Z,102141.61
2019-05-13T05:16:13.258Z,102135.67
2019-05-13T05:21:26.990Z,102143.47
2019-05-13T05:26:55.641Z,102137.56
2019-05-13T05:32:15.263Z,102141.98
2019-05-13T05:37:22.810Z,102142.14
2019-05-13T05:42:28.028Z,102145.86
2019-05-13T05:47:33.257Z,102145.04
2019-05-13T05:52:38.198Z,102146.58
2019-05-13T05:57:42.701Z,102152.02
2019-05-13T06:02:48.670Z,102160.52
2019-05-13T06:07:53.119Z,102152.58
2019-05-13T06:12:57.473Z,102146.95
2019-05-13T06:18:02.334Z,102150.14
2019-05-13T06:23:06.849Z,102150.09
2019-05-13T06:28:12.565Z,102158.87
2019-05-13T06:33:17.054Z,102153.29
2019-05-13T06:38:22.699Z,102155.01
2019-05-13T06:43:27.310Z,102159.78
2019-05-13T06:48:32.321Z,102168.02
2019-05-13T06:53:36.950Z,102169.76
2019-05-13T06:58:41.616Z,102179.27
2019-05-13T07:03:47.276Z,102177.19
2019-05-13T07:08:52.247Z,102182.89
2019-05-13T07:13:56.723Z,102176.72
2019-05-13T07:19:02.611Z,102175.84
2019-05-13T07:24:07.134Z,102173.38
2019-05-13T07:29:13.537Z,102181.68
2019-05-13T07:34:17.680Z,102176.42
2019-05-13T07:39:22.529Z,102176.84
2019-05-13T07:44:26.894Z,102174.23
2019-05-13T07:49:32.547Z,102172.41
2019-05-13T07:54:36.973Z,102168.55
2019-05-13T07:59:42.035Z,102164.61
2019-05-13T08:04:49.444Z,102165.06
2019-05-13T08:09:56.800Z,102157.17
2019-05-13T08:15:02.910Z,102158.91
2019-05-13T08:20:07.479Z,102162.86
2019-05-13T08:25:12.683Z,102161.52
2019-05-13T08:30:18.361Z,102157.12
2019-05-13T08:35:23.048Z,102155.84
2019-05-13T08:40:27.395Z,102157.16
2019-05-13T08:45:31.766Z,102150.11
2019-05-13T08:50:36.146Z,102149.72
2019-05-13T08:55:42.531Z,102148.41
2019-05-13T09:00:49.095Z,102150.43
2019-05-13T09:05:55.002Z,102148.40
2019-05-13T09:11:01.582Z,102140.95
2019-05-13T09:16:05.971Z,102145.72
2019-05-13T09:21:11.664Z,102140.52
2019-05-13T09:26:16.254Z,102140.11
2019-05-13T09:31:22.128Z,102137.47
2019-05-13T09:36:27.628Z,102128.52
2019-05-13T09:41:37.056Z,102139.20
2019-05-13T09:46:38.070Z,102140.09
2019-05-13T09:51:42.421Z,102134.38
2019-05-13T09:56:46.809Z,102130.48
2019-05-13T10:01:52.010Z,102135.70
2019-05-13T10:06:58.180Z,102124.81
2019-05-13T10:12:03.463Z,102123.34
2019-05-13T10:17:08.062Z,102115.94
2019-05-13T10:22:12.421Z,102110.55
2019-05-13T10:27:19.068Z,102119.52
2019-05-13T10:32:22.996Z,102120.83
2019-05-13T10:37:27.461Z,102089.66
2019-05-13T10:42:31.825Z,102092.76
2019-05-13T10:47:36.181Z,102094.81
2019-05-13T10:52:42.700Z,102101.52
2019-05-13T10:57:46.632Z,102103.31
2019-05-13T11:02:51.102Z,102093.48
2019-05-13T11:07:55.542Z,102104.58
2019-05-13T11:13:01.534Z,102105.94
2019-05-13T11:18:06.155Z,102117.78
2019-05-13T11:23:12.429Z,102096.02
2019-05-13T11:28:17.082Z,102088.20
2019-05-13T11:33:22.468Z,102076.39
2019-05-13T11:38:26.976Z,102073.82
2019-05-13T11:43:33.224Z,102084.83
2019-05-13T11:48:37.438Z,102081.83
2019-05-13T11:53:41.834Z,102078.82
2019-05-13T11:58:46.269Z,102061.23
2019-05-13T12:03:53.127Z,102057.33
2019-05-13T12:08:56.833Z,102053.56
2019-05-13T12:14:01.186Z,102053.56
2019-05-13T12:19:05.638Z,102034.88
2019-05-13T12:24:11.417Z,102044.68
2019-05-13T12:29:19.167Z,102042.09
2019-05-13T12:34:22.805Z,102044.86
2019-05-13T12:39:27.553Z,102042.16
2019-05-13T12:44:31.891Z,102027.00
2019-05-13T12:49:36.881Z,102017.81
2019-05-13T12:54:43.705Z,102022.93
2019-05-13T12:59:47.448Z,102017.39
2019-05-13T13:05:10.659Z,102004.41
2019-05-13T13:09:57.997Z,102011.81
2019-05-13T13:15:30.500Z,102021.12
2019-05-13T13:20:09.930Z,102011.53
2019-05-13T13:25:15.249Z,102008.25
2019-05-13T13:30:19.809Z,102013.25
2019-05-13T13:35:25.144Z,102002.77
2019-05-13T13:40:35.135Z,101990.75
2019-05-13T13:46:05.764Z,102003.09
2019-05-13T13:50:44.475Z,101995.28
2019-05-13T13:55:49.208Z,101989.37
2019-05-13T14:01:05.700Z,101990.80
2019-05-13T14:06:05.714Z,101989.08
2019-05-13T14:11:05.908Z,101989.06
2019-05-13T14:16:25.061Z,101986.03
2019-05-13T14:21:16.434Z,101982.06
2019-05-13T14:26:22.190Z,101975.89
2019-05-13T14:31:26.773Z,101979.25
2019-05-13T14:36:31.531Z,101975.23
2019-05-13T14:41:38.213Z,101959.84
2019-05-13T14:46:47.900Z,101961.14
2019-05-13T14:51:53.091Z,101950.55
2019-05-13T14:56:58.656Z,101951.28
2019-05-13T15:02:03.142Z,101939.83
2019-05-13T15:07:07.508Z,101928.29
2019-05-13T15:12:12.660Z,101934.64
2019-05-13T15:17:17.033Z,101930.19
2019-05-13T15:22:22.737Z,101926.86
2019-05-13T15:27:27.362Z,101924.28
2019-05-13T15:32:32.700Z,101926.84
2019-05-13T15:37:37.232Z,101925.22
2019-05-13T15:42:43.114Z,101921.62
2019-05-13T15:47:47.483Z,101924.20
2019-05-13T15:52:51.913Z,101917.59
2019-05-13T15:57:56.667Z,101910.06
2019-05-13T16:03:01.714Z,101908.05
2019-05-13T16:08:06.257Z,101900.59
2019-05-13T16:13:11.816Z,101905.48
2019-05-13T16:18:16.850Z,101903.23
2019-05-13T16:23:21.385Z,101902.83
2019-05-13T16:28:25.744Z,101901.12
2019-05-13T16:33:31.389Z,101900.20
2019-05-13T16:38:36.085Z,101899.12
2019-05-13T16:43:42.574Z,101906.63
2019-05-13T16:48:46.509Z,101895.39
2019-05-13T16:53:52.308Z,101888.20
2019-05-13T16:58:56.827Z,101899.88
2019-05-13T17:04:02.036Z,101891.84
2019-05-13T17:09:06.824Z,101895.35
2019-05-13T17:14:11.449Z,101896.70
2019-05-13T17:19:15.850Z,101894.03
2019-05-13T17:24:22.403Z,101894.94
2019-05-13T17:29:26.336Z,101896.84
2019-05-13T17:34:31.875Z,101900.78
2019-05-13T17:39:36.584Z,101899.55
2019-05-13T17:44:45.976Z,101901.42
2019-05-13T17:49:48.366Z,101903.20
2019-05-13T17:54:52.742Z,101903.67
2019-05-13T17:59:57.113Z,101905.02
2019-05-13T18:05:02.059Z,101904.63
2019-05-13T18:10:07.008Z,101904.20
2019-05-13T18:15:12.111Z,101902.90
2019-05-13T18:20:16.988Z,101905.11
2019-05-13T18:25:22.321Z,101905.56
2019-05-13T18:30:26.935Z,101911.29
2019-05-13T18:35:32.365Z,101917.42
2019-05-13T18:40:38.364Z,101911.77
2019-05-13T18:45:51.911Z,101908.28
2019-05-13T18:50:57.402Z,101915.27
2019-05-13T18:56:03.843Z,101918.77
2019-05-13T19:01:11.252Z,101916.16
2019-05-13T19:06:15.454Z,101919.23
2019-05-13T19:11:22.113Z,101919.70
2019-05-13T19:16:25.871Z,101923.62
2019-05-13T19:21:31.058Z,101925.38
2019-05-13T19:26:36.632Z,101923.18
2019-05-13T19:31:41.759Z,101925.82
2019-05-13T19:36:46.414Z,101917.48
2019-05-13T19:41:50.762Z,101917.48
2019-05-13T19:46:55.185Z,101926.62
2019-05-13T19:52:01.908Z,101928.80
2019-05-13T19:57:05.782Z,101930.08
2019-05-13T20:02:12.185Z,101927.03
2019-05-13T20:07:16.402Z,101926.13
2019-05-13T20:12:21.284Z,101916.94
2019-05-13T20:17:25.724Z,101919.55
2019-05-13T20:22:31.343Z,101919.14
2019-05-13T20:27:35.883Z,101912.53
2019-05-13T20:32:40.274Z,101918.68
2019-05-13T20:37:44.650Z,101906.90
2019-05-13T20:42:51.597Z,101905.95
2019-05-13T20:47:56.137Z,101907.19
2019-05-13T20:53:00.545Z,101910.22
2019-05-13T20:58:04.857Z,101916.78
2019-05-13T21:03:11.561Z,101913.70
2019-05-13T21:08:15.333Z,101913.66
2019-05-13T21:13:21.182Z,101921.47
2019-05-13T21:18:25.589Z,101923.66
2019-05-13T21:23:31.302Z,101934.14
2019-05-13T21:28:35.802Z,101936.77
2019-05-13T21:33:40.143Z,101937.66
2019-05-13T21:38:44.529Z,101930.77
2019-05-13T21:43:48.923Z,101927.73
2019-05-13T21:48:53.401Z,101912.78
2019-05-13T21:54:01.217Z,101914.94
2019-05-13T21:59:05.754Z,101912.34
2019-05-13T22:04:12.130Z,101915.77
2019-05-13T22:09:16.204Z,101911.31
2019-05-13T22:14:20.686Z,101904.75
2019-05-13T22:19:25.008Z,101903.72
2019-05-13T22:24:31.226Z,101898.57
2019-05-13T22:29:35.414Z,101899.08
2019-05-13T22:34:41.741Z,101895.59
2019-05-13T22:39:45.885Z,101889.78
2019-05-13T22:44:52.270Z,101892.94
2019-05-13T22:49:56.964Z,101896.60
2019-05-13T22:55:02.441Z,101893.56
2019-05-13T23:00:08.233Z,101893.90
2019-05-13T23:05:14.195Z,101885.62
2019-05-13T23:10:18.625Z,101887.73
2019-05-13T23:15:23.004Z,101893.33
2019-05-13T23:20:27.366Z,101889.64
2019-05-13T23:25:32.101Z,101885.45
2019-05-13T23:30:36.596Z,101888.75
2019-05-13T23:35:41.873Z,101891.30
2019-05-13T23:40:46.490Z,101892.02
2019-05-13T23:45:51.388Z,101884.40
2019-05-13T23:50:55.800Z,101879.89
2019-05-13T23:56:02.002Z,101872.27
